Hlavní strana
METAR-TAF:

METAR-TAF

Letiště :

Letiště Takamacu

Takamacu, Japonsko

zeměpisná šířka: 34-13N, zeměpisná délka: 134-01E, výška: 185 m

Aktuální stav počasí

Zpráva byla vytvořena před 29 minutami, v 02:00 UTC
vítr z různých směrů 2 kt
Teplota 8°C
Vlhkost vzduchu 61%
Tlak 1030 hPa
Viditelnost 10 km a více
Skoro jasno ve výšce 2000 ft
Polojasno ve výšce 11000 ft
Oblačno až skoro zataženo ve výšce 13000 ft

METAR: RJOT 200200Z VRB02KT 9999 FEW020 SCT110 BKN130 08/01 Q1030

Čas: 11:29 (02:29 UTC)

Předpověď počasí

Zpráva byla vytvořena před 3 hodinami a 23 minutami, v 23:06 UTC
Předpověď platná od 20 v 00 UTC do 21 v 06 UTC
Západoseverozápadní vítr 5 kt
Viditelnost 10 km a více
Skoro jasno ve výšce 3000 ft
Změna
od 20 v 09 UTC do 20 v 11 UTC
Jihojihovýchodní vítr 6 kt

TAF: RJOT 192306Z 2000/2106 29005KT 9999 FEW030 BECMG 2009/2011 15006KT

Stav a předpovědi počasí z více než 4 000 letišť (zprávy METAR a TAF).

Červené a žluté tečky na mapě představují dostupné meteorologické stanice.

Když kurzor umístíte na tečku, zobrazí se název stanice.

Pak kliknutím zobrazíte stav a předpověď počasí.

Chcete-li změnit mapu, kliknutím na zelené tlačítko se znaménkem +mapu přiblížíte, kliknutím na zelené tlačítko se znaménkem – mapu oddálíte a kliknutím na zelené šipky přejdete na sousední mapy.


METAR-TAF: